sensor_id;sensor_type;location;lat;lon;timestamp;temperature;humidity
16929;DHT22;8581;47.334;11.190;2023-06-26T00:01:53;12.20;99.90
16929;DHT22;8581;47.334;11.190;2023-06-26T00:04:24;12.20;99.90
16929;DHT22;8581;47.334;11.190;2023-06-26T00:06:56;12.30;99.90
16929;DHT22;8581;47.334;11.190;2023-06-26T00:09:28;12.40;99.90
16929;DHT22;8581;47.334;11.190;2023-06-26T00:11:59;12.60;99.90
16929;DHT22;8581;47.334;11.190;2023-06-26T00:14:31;12.50;99.90
16929;DHT22;8581;47.334;11.190;2023-06-26T00:17:03;12.50;99.90
16929;DHT22;8581;47.334;11.190;2023-06-26T00:19:34;12.40;99.90
16929;DHT22;8581;47.334;11.190;2023-06-26T00:22:06;12.30;99.90
16929;DHT22;8581;47.334;11.190;2023-06-26T00:24:37;12.30;99.90
16929;DHT22;8581;47.334;11.190;2023-06-26T00:27:09;12.20;99.90
16929;DHT22;8581;47.334;11.190;2023-06-26T00:29:41;12.20;99.90
16929;DHT22;8581;47.334;11.190;2023-06-26T00:32:12;12.30;99.90
16929;DHT22;8581;47.334;11.190;2023-06-26T00:34:44;12.30;99.90
16929;DHT22;8581;47.334;11.190;2023-06-26T00:37:15;12.40;99.90
16929;DHT22;8581;47.334;11.190;2023-06-26T00:39:47;12.40;99.90
16929;DHT22;8581;47.334;11.190;2023-06-26T00:42:19;12.50;99.90
16929;DHT22;8581;47.334;11.190;2023-06-26T00:44:50;12.20;99.90
16929;DHT22;8581;47.334;11.190;2023-06-26T00:47:22;12.10;99.90
16929;DHT22;8581;47.334;11.190;2023-06-26T00:49:54;12.20;99.90
16929;DHT22;8581;47.334;11.190;2023-06-26T00:52:25;12.30;99.90
16929;DHT22;8581;47.334;11.190;2023-06-26T00:54:57;12.30;99.90
16929;DHT22;8581;47.334;11.190;2023-06-26T00:57:29;12.30;99.90
16929;DHT22;8581;47.334;11.190;2023-06-26T01:00:00;12.40;99.90
16929;DHT22;8581;47.334;11.190;2023-06-26T01:02:31;12.40;99.90
16929;DHT22;8581;47.334;11.190;2023-06-26T01:05:05;12.40;99.90
16929;DHT22;8581;47.334;11.190;2023-06-26T01:07:37;12.30;99.90
16929;DHT22;8581;47.334;11.190;2023-06-26T01:10:09;12.20;99.90
16929;DHT22;8581;47.334;11.190;2023-06-26T01:12:40;12.10;99.90
16929;DHT22;8581;47.334;11.190;2023-06-26T01:15:12;12.10;99.90
16929;DHT22;8581;47.334;11.190;2023-06-26T01:17:44;12.10;99.90
16929;DHT22;8581;47.334;11.190;2023-06-26T01:20:15;12.10;99.90
16929;DHT22;8581;47.334;11.190;2023-06-26T01:25:50;12.10;99.90
16929;DHT22;8581;47.334;11.190;2023-06-26T01:28:15;12.00;99.90
16929;DHT22;8581;47.334;11.190;2023-06-26T01:30:47;11.90;99.90
16929;DHT22;8581;47.334;11.190;2023-06-26T01:33:19;11.90;99.90
16929;DHT22;8581;47.334;11.190;2023-06-26T01:35:50;12.00;99.90
16929;DHT22;8581;47.334;11.190;2023-06-26T01:38:22;12.10;99.90
16929;DHT22;8581;47.334;11.190;2023-06-26T01:40:54;12.10;99.90
16929;DHT22;8581;47.334;11.190;2023-06-26T01:46:06;12.00;99.90
16929;DHT22;8581;47.334;11.190;2023-06-26T01:48:40;11.90;99.90
16929;DHT22;8581;47.334;11.190;2023-06-26T01:51:10;11.90;99.90
16929;DHT22;8581;47.334;11.190;2023-06-26T01:53:43;11.80;99.90
16929;DHT22;8581;47.334;11.190;2023-06-26T01:56:15;11.80;99.90
16929;DHT22;8581;47.334;11.190;2023-06-26T01:58:46;11.80;99.90
16929;DHT22;8581;47.334;11.190;2023-06-26T02:01:17;11.80;99.90
16929;DHT22;8581;47.334;11.190;2023-06-26T02:03:49;11.80;99.90
16929;DHT22;8581;47.334;11.190;2023-06-26T02:06:20;11.70;99.90
16929;DHT22;8581;47.334;11.190;2023-06-26T02:08:52;11.70;99.90
16929;DHT22;8581;47.334;11.190;2023-06-26T02:11:24;11.80;99.90
16929;DHT22;8581;47.334;11.190;2023-06-26T02:13:55;11.60;99.90
16929;DHT22;8581;47.334;11.190;2023-06-26T02:16:27;11.80;99.90
16929;DHT22;8581;47.334;11.190;2023-06-26T02:18:58;11.70;99.90
16929;DHT22;8581;47.334;11.190;2023-06-26T02:21:30;11.70;99.90
16929;DHT22;8581;47.334;11.190;2023-06-26T02:24:01;11.60;99.90
16929;DHT22;8581;47.334;11.190;2023-06-26T02:26:33;11.50;99.90
16929;DHT22;8581;47.334;11.190;2023-06-26T02:29:05;11.60;99.90
16929;DHT22;8581;47.334;11.190;2023-06-26T02:31:36;11.60;99.90
16929;DHT22;8581;47.334;11.190;2023-06-26T02:34:08;11.60;99.90
16929;DHT22;8581;47.334;11.190;2023-06-26T02:36:39;11.30;99.90
16929;DHT22;8581;47.334;11.190;2023-06-26T02:39:11;11.40;99.90
16929;DHT22;8581;47.334;11.190;2023-06-26T02:41:43;11.40;99.90
16929;DHT22;8581;47.334;11.190;2023-06-26T02:44:15;11.30;99.90
16929;DHT22;8581;47.334;11.190;2023-06-26T02:46:46;11.40;99.90
16929;DHT22;8581;47.334;11.190;2023-06-26T02:49:18;11.40;99.90
16929;DHT22;8581;47.334;11.190;2023-06-26T02:51:49;11.20;99.90
16929;DHT22;8581;47.334;11.190;2023-06-26T02:54:21;11.20;99.90
16929;DHT22;8581;47.334;11.190;2023-06-26T02:56:53;11.20;99.90
16929;DHT22;8581;47.334;11.190;2023-06-26T02:59:24;11.10;99.90
16929;DHT22;8581;47.334;11.190;2023-06-26T03:01:56;11.10;99.90
16929;DHT22;8581;47.334;11.190;2023-06-26T03:04:27;11.20;99.90
16929;DHT22;8581;47.334;11.190;2023-06-26T03:06:59;11.10;99.90
16929;DHT22;8581;47.334;11.190;2023-06-26T03:09:30;11.20;99.90
16929;DHT22;8581;47.334;11.190;2023-06-26T03:12:02;11.20;99.90
16929;DHT22;8581;47.334;11.190;2023-06-26T03:14:34;11.20;99.90
16929;DHT22;8581;47.334;11.190;2023-06-26T03:17:06;11.10;99.90
16929;DHT22;8581;47.334;11.190;2023-06-26T03:19:37;11.20;99.90
16929;DHT22;8581;47.334;11.190;2023-06-26T03:22:09;11.00;99.90
16929;DHT22;8581;47.334;11.190;2023-06-26T03:24:40;10.90;99.90
16929;DHT22;8581;47.334;11.190;2023-06-26T03:27:12;11.00;99.90
16929;DHT22;8581;47.334;11.190;2023-06-26T03:29:43;11.00;99.90
16929;DHT22;8581;47.334;11.190;2023-06-26T03:32:15;11.10;99.90
16929;DHT22;8581;47.334;11.190;2023-06-26T03:34:47;11.20;99.90
16929;DHT22;8581;47.334;11.190;2023-06-26T03:37:18;11.20;99.90
16929;DHT22;8581;47.334;11.190;2023-06-26T03:39:50;11.10;99.90
16929;DHT22;8581;47.334;11.190;2023-06-26T03:42:21;11.20;99.90
16929;DHT22;8581;47.334;11.190;2023-06-26T03:44:53;11.40;99.90
16929;DHT22;8581;47.334;11.190;2023-06-26T03:47:25;11.20;99.90
16929;DHT22;8581;47.334;11.190;2023-06-26T03:49:56;11.20;99.90
16929;DHT22;8581;47.334;11.190;2023-06-26T03:52:28;11.40;99.90
16929;DHT22;8581;47.334;11.190;2023-06-26T03:55:00;11.40;99.90
16929;DHT22;8581;47.334;11.190;2023-06-26T03:57:31;11.40;99.90
16929;DHT22;8581;47.334;11.190;2023-06-26T04:00:03;11.30;99.90
16929;DHT22;8581;47.334;11.190;2023-06-26T04:02:36;11.20;99.90
16929;DHT22;8581;47.334;11.190;2023-06-26T04:05:08;11.40;99.90
16929;DHT22;8581;47.334;11.190;2023-06-26T04:07:39;11.50;99.90
16929;DHT22;8581;47.334;11.190;2023-06-26T04:10:11;11.50;99.90
16929;DHT22;8581;47.334;11.190;2023-06-26T04:12:42;11.70;99.90
16929;DHT22;8581;47.334;11.190;2023-06-26T04:15:14;11.60;99.90
16929;DHT22;8581;47.334;11.190;2023-06-26T04:17:46;11.60;99.90
16929;DHT22;8581;47.334;11.190;2023-06-26T04:20:17;11.70;99.90
16929;DHT22;8581;47.334;11.190;2023-06-26T04:22:49;11.80;99.90
16929;DHT22;8581;47.334;11.190;2023-06-26T04:25:20;11.70;99.90
16929;DHT22;8581;47.334;11.190;2023-06-26T04:27:52;11.80;99.90
16929;DHT22;8581;47.334;11.190;2023-06-26T04:30:24;11.80;99.90
16929;DHT22;8581;47.334;11.190;2023-06-26T04:32:55;11.90;99.90
16929;DHT22;8581;47.334;11.190;2023-06-26T04:35:27;11.90;99.90
16929;DHT22;8581;47.334;11.190;2023-06-26T04:37:58;12.00;99.90
16929;DHT22;8581;47.334;11.190;2023-06-26T04:40:30;12.10;99.90
16929;DHT22;8581;47.334;11.190;2023-06-26T04:43:01;12.20;99.90
16929;DHT22;8581;47.334;11.190;2023-06-26T04:45:33;12.20;99.90
16929;DHT22;8581;47.334;11.190;2023-06-26T04:48:05;12.10;99.90
16929;DHT22;8581;47.334;11.190;2023-06-26T04:50:36;12.20;99.90
16929;DHT22;8581;47.334;11.190;2023-06-26T04:53:08;12.50;99.90
16929;DHT22;8581;47.334;11.190;2023-06-26T04:55:40;12.60;99.90
16929;DHT22;8581;47.334;11.190;2023-06-26T04:58:11;12.70;99.90
16929;DHT22;8581;47.334;11.190;2023-06-26T05:00:43;13.10;99.90
16929;DHT22;8581;47.334;11.190;2023-06-26T05:03:15;13.10;99.90
16929;DHT22;8581;47.334;11.190;2023-06-26T05:05:46;13.30;99.90
16929;DHT22;8581;47.334;11.190;2023-06-26T05:08:20;13.40;99.90
16929;DHT22;8581;47.334;11.190;2023-06-26T05:10:50;13.50;99.90
16929;DHT22;8581;47.334;11.190;2023-06-26T05:13:22;13.70;99.90
16929;DHT22;8581;47.334;11.190;2023-06-26T05:15:53;13.80;99.90
16929;DHT22;8581;47.334;11.190;2023-06-26T05:18:25;14.10;99.90
16929;DHT22;8581;47.334;11.190;2023-06-26T05:20:57;14.30;99.90
16929;DHT22;8581;47.334;11.190;2023-06-26T05:23:30;14.20;99.90
16929;DHT22;8581;47.334;11.190;2023-06-26T05:26:02;14.50;99.90
16929;DHT22;8581;47.334;11.190;2023-06-26T05:28:35;14.70;99.90
16929;DHT22;8581;47.334;11.190;2023-06-26T05:31:07;14.80;99.90
16929;DHT22;8581;47.334;11.190;2023-06-26T05:33:39;15.10;99.90
16929;DHT22;8581;47.334;11.190;2023-06-26T05:36:11;15.40;99.90
16929;DHT22;8581;47.334;11.190;2023-06-26T05:38:43;15.50;99.90
16929;DHT22;8581;47.334;11.190;2023-06-26T05:41:15;15.70;99.90
16929;DHT22;8581;47.334;11.190;2023-06-26T05:43:47;15.90;99.90
16929;DHT22;8581;47.334;11.190;2023-06-26T05:46:18;15.90;99.90
16929;DHT22;8581;47.334;11.190;2023-06-26T05:48:50;16.00;99.90
16929;DHT22;8581;47.334;11.190;2023-06-26T05:51:22;16.20;99.90
16929;DHT22;8581;47.334;11.190;2023-06-26T05:53:54;16.20;99.90
16929;DHT22;8581;47.334;11.190;2023-06-26T05:56:26;16.40;99.90
16929;DHT22;8581;47.334;11.190;2023-06-26T05:58:58;16.60;99.90
16929;DHT22;8581;47.334;11.190;2023-06-26T06:01:29;16.50;99.90
16929;DHT22;8581;47.334;11.190;2023-06-26T06:04:01;16.50;99.90
16929;DHT22;8581;47.334;11.190;2023-06-26T06:06:32;16.60;99.90
16929;DHT22;8581;47.334;11.190;2023-06-26T06:09:04;16.70;99.90
16929;DHT22;8581;47.334;11.190;2023-06-26T06:11:36;17.00;99.90
16929;DHT22;8581;47.334;11.190;2023-06-26T06:14:07;17.10;99.90
16929;DHT22;8581;47.334;11.190;2023-06-26T06:16:39;17.10;99.90
16929;DHT22;8581;47.334;11.190;2023-06-26T06:19:10;17.10;99.90
16929;DHT22;8581;47.334;11.190;2023-06-26T06:21:42;17.20;99.90
16929;DHT22;8581;47.334;11.190;2023-06-26T06:24:14;17.40;99.90
16929;DHT22;8581;47.334;11.190;2023-06-26T06:26:45;17.70;99.90
16929;DHT22;8581;47.334;11.190;2023-06-26T06:29:17;17.60;99.90
16929;DHT22;8581;47.334;11.190;2023-06-26T06:31:48;17.80;99.90
16929;DHT22;8581;47.334;11.190;2023-06-26T06:34:20;18.00;99.90
16929;DHT22;8581;47.334;11.190;2023-06-26T06:36:52;18.30;99.90
16929;DHT22;8581;47.334;11.190;2023-06-26T06:39:23;18.30;99.90
16929;DHT22;8581;47.334;11.190;2023-06-26T06:41:55;18.50;99.90
16929;DHT22;8581;47.334;11.190;2023-06-26T06:44:26;18.50;99.90
16929;DHT22;8581;47.334;11.190;2023-06-26T06:46:58;18.50;99.90
16929;DHT22;8581;47.334;11.190;2023-06-26T06:49:30;18.60;99.90
16929;DHT22;8581;47.334;11.190;2023-06-26T06:52:01;18.80;99.90
16929;DHT22;8581;47.334;11.190;2023-06-26T06:54:33;19.10;99.90
16929;DHT22;8581;47.334;11.190;2023-06-26T06:57:04;19.30;99.90
16929;DHT22;8581;47.334;11.190;2023-06-26T06:59:36;19.30;99.90
16929;DHT22;8581;47.334;11.190;2023-06-26T07:02:08;19.40;99.90
16929;DHT22;8581;47.334;11.190;2023-06-26T07:04:39;19.50;99.90
16929;DHT22;8581;47.334;11.190;2023-06-26T07:07:12;19.70;99.90
16929;DHT22;8581;47.334;11.190;2023-06-26T07:09:43;19.80;99.90
16929;DHT22;8581;47.334;11.190;2023-06-26T07:12:14;20.00;99.90
16929;DHT22;8581;47.334;11.190;2023-06-26T07:14:46;20.10;99.90
16929;DHT22;8581;47.334;11.190;2023-06-26T07:17:18;20.10;99.90
16929;DHT22;8581;47.334;11.190;2023-06-26T07:19:50;20.50;99.90
16929;DHT22;8581;47.334;11.190;2023-06-26T07:22:21;20.90;99.90
16929;DHT22;8581;47.334;11.190;2023-06-26T07:24:53;21.00;99.90
16929;DHT22;8581;47.334;11.190;2023-06-26T07:27:25;21.20;99.90
16929;DHT22;8581;47.334;11.190;2023-06-26T07:30:01;21.50;99.90
16929;DHT22;8581;47.334;11.190;2023-06-26T07:32:32;21.50;99.90
16929;DHT22;8581;47.334;11.190;2023-06-26T07:35:04;21.50;99.90
16929;DHT22;8581;47.334;11.190;2023-06-26T07:37:36;21.50;99.90
16929;DHT22;8581;47.334;11.190;2023-06-26T07:40:09;21.60;99.90
16929;DHT22;8581;47.334;11.190;2023-06-26T07:42:41;21.30;99.90
16929;DHT22;8581;47.334;11.190;2023-06-26T07:45:12;21.50;99.90
16929;DHT22;8581;47.334;11.190;2023-06-26T07:47:44;21.70;99.90
16929;DHT22;8581;47.334;11.190;2023-06-26T07:50:19;21.90;99.90
16929;DHT22;8581;47.334;11.190;2023-06-26T07:52:51;21.90;99.90
16929;DHT22;8581;47.334;11.190;2023-06-26T07:55:22;22.00;99.90
16929;DHT22;8581;47.334;11.190;2023-06-26T07:57:54;22.10;99.90
16929;DHT22;8581;47.334;11.190;2023-06-26T08:00:26;22.00;99.90
16929;DHT22;8581;47.334;11.190;2023-06-26T08:02:58;22.10;99.90
16929;DHT22;8581;47.334;11.190;2023-06-26T08:05:29;22.40;99.90
16929;DHT22;8581;47.334;11.190;2023-06-26T08:08:01;22.50;99.90
16929;DHT22;8581;47.334;11.190;2023-06-26T08:10:33;22.40;99.90
16929;DHT22;8581;47.334;11.190;2023-06-26T08:13:04;22.60;99.90
16929;DHT22;8581;47.334;11.190;2023-06-26T08:15:36;22.70;99.90
16929;DHT22;8581;47.334;11.190;2023-06-26T08:18:07;22.80;99.90
16929;DHT22;8581;47.334;11.190;2023-06-26T08:20:39;22.80;99.90
16929;DHT22;8581;47.334;11.190;2023-06-26T08:23:10;22.90;99.90
16929;DHT22;8581;47.334;11.190;2023-06-26T08:25:42;22.90;99.90
16929;DHT22;8581;47.334;11.190;2023-06-26T08:28:14;22.90;99.90
16929;DHT22;8581;47.334;11.190;2023-06-26T08:30:46;22.90;99.90
16929;DHT22;8581;47.334;11.190;2023-06-26T08:33:17;23.00;99.90
16929;DHT22;8581;47.334;11.190;2023-06-26T08:35:49;23.10;99.50
16929;DHT22;8581;47.334;11.190;2023-06-26T08:38:21;22.90;99.50
16929;DHT22;8581;47.334;11.190;2023-06-26T08:40:52;23.10;99.90
16929;DHT22;8581;47.334;11.190;2023-06-26T08:43:24;23.30;99.40
16929;DHT22;8581;47.334;11.190;2023-06-26T08:45:55;23.10;99.40
16929;DHT22;8581;47.334;11.190;2023-06-26T08:48:28;23.40;98.10
16929;DHT22;8581;47.334;11.190;2023-06-26T08:51:01;23.40;96.90
16929;DHT22;8581;47.334;11.190;2023-06-26T08:53:37;23.30;97.10
16929;DHT22;8581;47.334;11.190;2023-06-26T08:56:05;23.30;97.50
16929;DHT22;8581;47.334;11.190;2023-06-26T08:58:36;23.40;96.90
16929;DHT22;8581;47.334;11.190;2023-06-26T09:01:08;23.70;97.90
16929;DHT22;8581;47.334;11.190;2023-06-26T09:03:40;23.60;96.50
16929;DHT22;8581;47.334;11.190;2023-06-26T09:06:11;23.60;95.60
16929;DHT22;8581;47.334;11.190;2023-06-26T09:08:43;23.70;96.50
16929;DHT22;8581;47.334;11.190;2023-06-26T09:11:14;23.70;95.70
16929;DHT22;8581;47.334;11.190;2023-06-26T09:13:46;23.80;95.30
16929;DHT22;8581;47.334;11.190;2023-06-26T09:16:18;24.10;95.00
16929;DHT22;8581;47.334;11.190;2023-06-26T09:18:50;24.50;96.40
16929;DHT22;8581;47.334;11.190;2023-06-26T09:21:21;24.50;96.60
16929;DHT22;8581;47.334;11.190;2023-06-26T09:23:52;24.60;94.70
16929;DHT22;8581;47.334;11.190;2023-06-26T09:26:24;24.60;94.10
16929;DHT22;8581;47.334;11.190;2023-06-26T09:28:56;24.40;93.80
16929;DHT22;8581;47.334;11.190;2023-06-26T09:31:27;24.40;94.50
16929;DHT22;8581;47.334;11.190;2023-06-26T09:33:59;24.30;94.20
16929;DHT22;8581;47.334;11.190;2023-06-26T09:36:31;24.50;94.50
16929;DHT22;8581;47.334;11.190;2023-06-26T09:39:03;24.90;93.50
16929;DHT22;8581;47.334;11.190;2023-06-26T09:41:35;25.20;93.00
16929;DHT22;8581;47.334;11.190;2023-06-26T09:44:06;25.50;91.80
16929;DHT22;8581;47.334;11.190;2023-06-26T09:46:38;25.70;94.10
16929;DHT22;8581;47.334;11.190;2023-06-26T09:49:10;25.90;93.80
16929;DHT22;8581;47.334;11.190;2023-06-26T09:51:43;25.70;92.70
16929;DHT22;8581;47.334;11.190;2023-06-26T09:54:16;25.50;93.10
16929;DHT22;8581;47.334;11.190;2023-06-26T09:56:46;25.10;92.70
16929;DHT22;8581;47.334;11.190;2023-06-26T09:59:18;24.90;93.50
16929;DHT22;8581;47.334;11.190;2023-06-26T10:01:50;25.00;92.10
16929;DHT22;8581;47.334;11.190;2023-06-26T10:04:21;25.80;92.80
16929;DHT22;8581;47.334;11.190;2023-06-26T10:06:54;26.40;92.20
16929;DHT22;8581;47.334;11.190;2023-06-26T10:09:25;27.20;90.90
16929;DHT22;8581;47.334;11.190;2023-06-26T10:11:58;27.90;90.50
16929;DHT22;8581;47.334;11.190;2023-06-26T10:14:34;28.20;86.20
16929;DHT22;8581;47.334;11.190;2023-06-26T10:17:02;29.30;85.40
16929;DHT22;8581;47.334;11.190;2023-06-26T10:19:32;30.10;89.20
16929;DHT22;8581;47.334;11.190;2023-06-26T10:22:04;31.70;83.10
16929;DHT22;8581;47.334;11.190;2023-06-26T10:24:36;30.30;81.20
16929;DHT22;8581;47.334;11.190;2023-06-26T10:27:10;29.40;80.20
16929;DHT22;8581;47.334;11.190;2023-06-26T10:29:40;29.40;82.00
16929;DHT22;8581;47.334;11.190;2023-06-26T10:32:12;29.50;78.20
16929;DHT22;8581;47.334;11.190;2023-06-26T10:34:43;28.80;79.90
16929;DHT22;8581;47.334;11.190;2023-06-26T10:37:15;29.50;83.90
16929;DHT22;8581;47.334;11.190;2023-06-26T10:39:49;31.10;80.80
16929;DHT22;8581;47.334;11.190;2023-06-26T10:42:28;32.40;79.70
16929;DHT22;8581;47.334;11.190;2023-06-26T10:44:52;32.20;74.00
16929;DHT22;8581;47.334;11.190;2023-06-26T10:47:29;33.70;76.10
16929;DHT22;8581;47.334;11.190;2023-06-26T10:52:44;34.00;68.20
16929;DHT22;8581;47.334;11.190;2023-06-26T10:55:15;32.70;70.90
16929;DHT22;8581;47.334;11.190;2023-06-26T10:57:47;31.70;68.70
16929;DHT22;8581;47.334;11.190;2023-06-26T11:00:18;31.00;70.30
16929;DHT22;8581;47.334;11.190;2023-06-26T11:02:50;30.40;74.10
16929;DHT22;8581;47.334;11.190;2023-06-26T11:05:24;31.40;76.40
16929;DHT22;8581;47.334;11.190;2023-06-26T11:08:04;33.00;76.10
16929;DHT22;8581;47.334;11.190;2023-06-26T11:10:50;34.60;71.30
16929;DHT22;8581;47.334;11.190;2023-06-26T11:13:20;35.80;68.20
16929;DHT22;8581;47.334;11.190;2023-06-26T11:15:52;36.70;67.50
16929;DHT22;8581;47.334;11.190;2023-06-26T11:18:23;37.70;65.00
16929;DHT22;8581;47.334;11.190;2023-06-26T11:21:03;35.30;65.00
16929;DHT22;8581;47.334;11.190;2023-06-26T11:23:26;36.40;68.00
16929;DHT22;8581;47.334;11.190;2023-06-26T11:26:11;37.30;68.20
16929;DHT22;8581;47.334;11.190;2023-06-26T11:28:30;38.30;65.00
16929;DHT22;8581;47.334;11.190;2023-06-26T11:31:01;38.50;63.60
16929;DHT22;8581;47.334;11.190;2023-06-26T11:33:33;38.60;62.40
16929;DHT22;8581;47.334;11.190;2023-06-26T11:36:08;38.90;62.90
16929;DHT22;8581;47.334;11.190;2023-06-26T11:38:40;38.00;63.90
16929;DHT22;8581;47.334;11.190;2023-06-26T11:41:16;38.80;62.10
16929;DHT22;8581;47.334;11.190;2023-06-26T11:43:43;39.80;61.10
16929;DHT22;8581;47.334;11.190;2023-06-26T11:46:17;39.20;61.10
16929;DHT22;8581;47.334;11.190;2023-06-26T11:48:49;39.80;60.90
16929;DHT22;8581;47.334;11.190;2023-06-26T11:51:21;39.90;60.90
16929;DHT22;8581;47.334;11.190;2023-06-26T11:53:52;40.20;60.30
16929;DHT22;8581;47.334;11.190;2023-06-26T11:56:24;40.70;58.30
16929;DHT22;8581;47.334;11.190;2023-06-26T11:59:07;38.70;59.70
16929;DHT22;8581;47.334;11.190;2023-06-26T12:01:39;36.50;63.40
16929;DHT22;8581;47.334;11.190;2023-06-26T12:04:10;35.20;65.50
16929;DHT22;8581;47.334;11.190;2023-06-26T12:06:43;34.00;65.80
16929;DHT22;8581;47.334;11.190;2023-06-26T12:09:14;33.90;66.30
16929;DHT22;8581;47.334;11.190;2023-06-26T12:11:46;35.30;66.70
16929;DHT22;8581;47.334;11.190;2023-06-26T12:14:17;35.50;65.00
16929;DHT22;8581;47.334;11.190;2023-06-26T12:16:49;35.10;65.00
16929;DHT22;8581;47.334;11.190;2023-06-26T12:19:25;35.90;64.60
16929;DHT22;8581;47.334;11.190;2023-06-26T12:21:57;37.70;65.70
16929;DHT22;8581;47.334;11.190;2023-06-26T12:24:29;39.10;61.90
16929;DHT22;8581;47.334;11.190;2023-06-26T12:27:01;38.20;62.00
16929;DHT22;8581;47.334;11.190;2023-06-26T12:29:32;37.80;63.20
16929;DHT22;8581;47.334;11.190;2023-06-26T12:32:07;38.70;61.00
16929;DHT22;8581;47.334;11.190;2023-06-26T12:34:38;40.40;58.30
16929;DHT22;8581;47.334;11.190;2023-06-26T12:37:10;39.10;59.90
16929;DHT22;8581;47.334;11.190;2023-06-26T12:39:47;39.10;59.50
16929;DHT22;8581;47.334;11.190;2023-06-26T12:42:19;38.00;59.80
16929;DHT22;8581;47.334;11.190;2023-06-26T12:44:50;37.80;60.90
16929;DHT22;8581;47.334;11.190;2023-06-26T12:47:24;36.60;61.70
16929;DHT22;8581;47.334;11.190;2023-06-26T12:49:55;34.30;63.90
16929;DHT22;8581;47.334;11.190;2023-06-26T12:52:26;33.70;66.70
16929;DHT22;8581;47.334;11.190;2023-06-26T12:54:58;33.50;66.70
16929;DHT22;8581;47.334;11.190;2023-06-26T12:57:29;32.70;67.50
16929;DHT22;8581;47.334;11.190;2023-06-26T13:00:01;32.10;71.20
16929;DHT22;8581;47.334;11.190;2023-06-26T13:02:33;33.60;69.00
16929;DHT22;8581;47.334;11.190;2023-06-26T13:05:05;34.00;67.20
16929;DHT22;8581;47.334;11.190;2023-06-26T13:07:36;35.70;67.50
16929;DHT22;8581;47.334;11.190;2023-06-26T13:10:08;37.20;64.50
16929;DHT22;8581;47.334;11.190;2023-06-26T13:12:40;35.70;63.70
16929;DHT22;8581;47.334;11.190;2023-06-26T13:15:11;34.30;65.60
16929;DHT22;8581;47.334;11.190;2023-06-26T13:17:43;32.70;68.80
16929;DHT22;8581;47.334;11.190;2023-06-26T13:20:14;31.50;70.40
16929;DHT22;8581;47.334;11.190;2023-06-26T13:22:46;31.80;70.50
16929;DHT22;8581;47.334;11.190;2023-06-26T13:25:17;32.00;69.60
16929;DHT22;8581;47.334;11.190;2023-06-26T13:27:49;32.00;72.70
16929;DHT22;8581;47.334;11.190;2023-06-26T13:30:21;31.00;71.80
16929;DHT22;8581;47.334;11.190;2023-06-26T13:32:52;32.90;71.00
16929;DHT22;8581;47.334;11.190;2023-06-26T13:35:24;33.00;68.80
16929;DHT22;8581;47.334;11.190;2023-06-26T13:37:56;32.10;70.00
16929;DHT22;8581;47.334;11.190;2023-06-26T13:40:27;30.90;72.10
16929;DHT22;8581;47.334;11.190;2023-06-26T13:42:59;30.60;73.10
16929;DHT22;8581;47.334;11.190;2023-06-26T13:45:30;29.90;74.40
16929;DHT22;8581;47.334;11.190;2023-06-26T13:48:02;29.00;75.30
16929;DHT22;8581;47.334;11.190;2023-06-26T13:50:34;28.70;76.60
16929;DHT22;8581;47.334;11.190;2023-06-26T13:53:05;28.50;77.20
16929;DHT22;8581;47.334;11.190;2023-06-26T13:55:37;28.50;78.20
16929;DHT22;8581;47.334;11.190;2023-06-26T13:58:09;28.30;79.20
16929;DHT22;8581;47.334;11.190;2023-06-26T14:00:40;28.60;78.70
16929;DHT22;8581;47.334;11.190;2023-06-26T14:03:12;31.60;76.40
16929;DHT22;8581;47.334;11.190;2023-06-26T14:05:43;34.60;70.70
16929;DHT22;8581;47.334;11.190;2023-06-26T14:08:16;34.10;68.90
16929;DHT22;8581;47.334;11.190;2023-06-26T14:10:46;33.60;69.10
16929;DHT22;8581;47.334;11.190;2023-06-26T14:13:18;32.40;69.80
16929;DHT22;8581;47.334;11.190;2023-06-26T14:15:50;32.20;72.30
16929;DHT22;8581;47.334;11.190;2023-06-26T14:18:23;32.80;70.10
16929;DHT22;8581;47.334;11.190;2023-06-26T14:20:55;34.50;69.40
16929;DHT22;8581;47.334;11.190;2023-06-26T14:23:27;36.40;66.90
16929;DHT22;8581;47.334;11.190;2023-06-26T14:25:58;37.80;65.30
16929;DHT22;8581;47.334;11.190;2023-06-26T14:28:30;38.40;63.70
16929;DHT22;8581;47.334;11.190;2023-06-26T14:31:01;38.80;62.20
16929;DHT22;8581;47.334;11.190;2023-06-26T14:33:33;36.10;65.00
16929;DHT22;8581;47.334;11.190;2023-06-26T14:36:05;33.50;68.70
16929;DHT22;8581;47.334;11.190;2023-06-26T14:38:36;31.90;70.60
16929;DHT22;8581;47.334;11.190;2023-06-26T14:41:08;30.00;74.50
16929;DHT22;8581;47.334;11.190;2023-06-26T14:43:39;29.60;76.70
16929;DHT22;8581;47.334;11.190;2023-06-26T14:46:11;30.00;74.90
16929;DHT22;8581;47.334;11.190;2023-06-26T14:48:43;30.20;75.00
16929;DHT22;8581;47.334;11.190;2023-06-26T14:51:14;30.60;75.90
16929;DHT22;8581;47.334;11.190;2023-06-26T14:53:46;32.50;76.10
16929;DHT22;8581;47.334;11.190;2023-06-26T14:56:17;34.70;71.50
16929;DHT22;8581;47.334;11.190;2023-06-26T14:58:49;36.90;66.90
16929;DHT22;8581;47.334;11.190;2023-06-26T15:01:21;37.50;67.10
16929;DHT22;8581;47.334;11.190;2023-06-26T15:03:52;37.00;66.60
16929;DHT22;8581;47.334;11.190;2023-06-26T15:06:24;35.20;66.90
16929;DHT22;8581;47.334;11.190;2023-06-26T15:08:56;32.80;68.60
16929;DHT22;8581;47.334;11.190;2023-06-26T15:11:28;32.20;71.30
16929;DHT22;8581;47.334;11.190;2023-06-26T15:13:59;32.10;71.50
16929;DHT22;8581;47.334;11.190;2023-06-26T15:16:30;31.40;73.20
16929;DHT22;8581;47.334;11.190;2023-06-26T15:19:02;31.40;72.70
16929;DHT22;8581;47.334;11.190;2023-06-26T15:21:34;30.50;74.90
16929;DHT22;8581;47.334;11.190;2023-06-26T15:24:06;30.80;74.70
16929;DHT22;8581;47.334;11.190;2023-06-26T15:26:38;31.20;72.90
16929;DHT22;8581;47.334;11.190;2023-06-26T15:29:09;30.80;73.70
16929;DHT22;8581;47.334;11.190;2023-06-26T15:31:41;30.50;73.80
16929;DHT22;8581;47.334;11.190;2023-06-26T15:34:13;29.90;75.20
16929;DHT22;8581;47.334;11.190;2023-06-26T15:36:44;29.30;76.10
16929;DHT22;8581;47.334;11.190;2023-06-26T15:39:16;28.70;77.60
16929;DHT22;8581;47.334;11.190;2023-06-26T15:41:48;28.60;76.70
16929;DHT22;8581;47.334;11.190;2023-06-26T15:44:19;29.10;78.80
16929;DHT22;8581;47.334;11.190;2023-06-26T15:46:51;29.30;75.80
16929;DHT22;8581;47.334;11.190;2023-06-26T15:49:22;30.10;74.90
16929;DHT22;8581;47.334;11.190;2023-06-26T15:51:54;30.70;72.30
16929;DHT22;8581;47.334;11.190;2023-06-26T15:54:26;31.50;69.90
16929;DHT22;8581;47.334;11.190;2023-06-26T15:56:57;32.40;71.80
16929;DHT22;8581;47.334;11.190;2023-06-26T15:59:29;33.80;67.80
16929;DHT22;8581;47.334;11.190;2023-06-26T16:02:00;35.60;68.10
16929;DHT22;8581;47.334;11.190;2023-06-26T16:04:32;35.70;65.10
16929;DHT22;8581;47.334;11.190;2023-06-26T16:07:04;36.10;64.90